Time,TemperatureF,DewpointF,PressureIn,WindDirection,WindDirectionDegrees,WindSpeedMPH,WindSpeedGustMPH,Humidity,HourlyPrecipIn,Conditions,Clouds,dailyrainin,SoftwareType,DateUTC
2013-02-12 00:00:00,47.8,45.3,30.29,SSW,199,7.0,10.0,91,0.00,,,0.00,meteohub,2013-02-12 08:00:00,
2013-02-12 00:05:00,47.8,45.3,30.29,SW,216,6.0,10.0,91,0.00,,,0.00,meteohub,2013-02-12 08:05:00,
2013-02-12 00:10:00,47.8,45.3,30.29,SSW,202,7.0,10.0,91,0.00,,,0.00,meteohub,2013-02-12 08:10:00,
2013-02-12 00:15:00,47.8,45.3,30.29,SW,215,6.0,10.0,91,0.00,,,0.00,meteohub,2013-02-12 08:15:00,
2013-02-12 00:20:00,47.8,45.3,30.29,SSW,204,4.0,9.0,91,0.00,,,0.00,meteohub,2013-02-12 08:20:00,
2013-02-12 00:25:00,47.8,45.3,30.29,SSW,201,5.0,9.0,91,0.00,,,0.00,meteohub,2013-02-12 08:25:00,
2013-02-12 00:30:00,47.8,45.3,30.29,SSW,200,6.0,8.0,91,0.00,,,0.00,meteohub,2013-02-12 08:30:00,
2013-02-12 00:35:00,47.7,45.1,30.29,SSW,196,4.0,8.0,91,0.00,,,0.00,meteohub,2013-02-12 08:35:00,
2013-02-12 00:40:00,47.7,45.1,30.29,SSW,206,6.0,8.0,91,0.00,,,0.00,meteohub,2013-02-12 08:40:00,
2013-02-12 00:45:00,47.7,45.1,30.29,SSW,204,6.0,8.0,91,0.00,,,0.00,meteohub,2013-02-12 08:45:00,
2013-02-12 00:50:00,47.7,45.1,30.29,SSW,201,4.0,9.0,91,0.00,,,0.00,meteohub,2013-02-12 08:50:00,
2013-02-12 00:55:00,47.7,45.1,30.29,SSW,199,4.0,9.0,91,0.00,,,0.00,meteohub,2013-02-12 08:55:00,
2013-02-12 01:01:00,47.5,45.0,30.29,SW,222,8.0,11.0,91,0.00,,,0.00,meteohub,2013-02-12 09:01:00,
2013-02-12 01:06:00,47.5,45.0,30.29,SSW,206,7.0,11.0,91,0.00,,,0.00,meteohub,2013-02-12 09:06:00,
2013-02-12 01:11:00,47.5,45.0,30.29,SSW,205,6.0,11.0,91,0.00,,,0.00,meteohub,2013-02-12 09:11:00,
2013-02-12 01:16:00,47.5,45.0,30.30,SW,220,5.0,11.0,91,0.00,,,0.00,meteohub,2013-02-12 09:16:00,
2013-02-12 01:21:00,47.5,45.0,30.30,SW,218,4.0,9.0,91,0.00,,,0.00,meteohub,2013-02-12 09:21:00,
2013-02-12 01:26:00,47.5,45.0,30.30,SW,226,6.0,8.0,91,0.00,,,0.00,meteohub,2013-02-12 09:26:00,
2013-02-12 01:31:00,47.5,45.0,30.30,SSW,212,4.0,10.0,91,0.00,,,0.00,meteohub,2013-02-12 09:31:00,
2013-02-12 01:36:00,47.3,44.8,30.30,SSW,208,4.0,10.0,91,0.00,,,0.00,meteohub,2013-02-12 09:36:00,
2013-02-12 01:41:00,47.3,44.8,30.30,SSW,207,4.0,10.0,91,0.00,,,0.00,meteohub,2013-02-12 09:41:00,
2013-02-12 01:46:00,47.1,44.6,30.30,SSW,208,4.0,7.0,91,0.00,,,0.00,meteohub,2013-02-12 09:46:00,
2013-02-12 01:51:00,47.1,44.6,30.30,SSW,208,2.0,7.0,91,0.00,,,0.00,meteohub,2013-02-12 09:51:00,
2013-02-12 01:56:00,47.1,44.6,30.30,SSW,208,3.0,6.0,91,0.00,,,0.00,meteohub,2013-02-12 09:56:00,
2013-02-12 02:01:00,46.9,44.4,30.30,SSW,207,3.0,6.0,91,0.00,,,0.00,meteohub,2013-02-12 10:01:00,
2013-02-12 02:06:00,46.9,44.4,30.30,SSW,207,3.0,6.0,91,0.00,,,0.00,meteohub,2013-02-12 10:06:00,
2013-02-12 02:11:00,47.1,44.6,30.30,SSW,204,3.0,6.0,91,0.00,,,0.00,meteohub,2013-02-12 10:11:00,
2013-02-12 02:16:00,46.9,44.4,30.30,SSW,204,4.0,6.0,91,0.00,,,0.00,meteohub,2013-02-12 10:16:00,
2013-02-12 02:21:00,46.9,44.4,30.31,SSW,204,2.0,6.0,91,0.00,,,0.00,meteohub,2013-02-12 10:21:00,
2013-02-12 02:26:00,46.9,44.4,30.31,SSW,204,0.0,4.0,91,0.00,,,0.00,meteohub,2013-02-12 10:26:00,
2013-02-12 02:31:00,46.9,44.4,30.31,SSW,204,0.0,4.0,91,0.00,,,0.00,meteohub,2013-02-12 10:31:00,
2013-02-12 02:36:00,46.8,44.2,30.31,SSW,204,0.0,4.0,91,0.00,,,0.00,meteohub,2013-02-12 10:36:00,
2013-02-12 02:41:00,46.8,44.2,30.31,SSW,204,0.0,3.0,91,0.00,,,0.00,meteohub,2013-02-12 10:41:00,
2013-02-12 02:47:00,46.8,44.2,30.31,SSW,204,0.0,2.0,91,0.00,,,0.00,meteohub,2013-02-12 10:47:00,
2013-02-12 02:52:00,46.8,44.6,30.31,SSW,204,0.0,1.0,92,0.00,,,0.00,meteohub,2013-02-12 10:52:00,
2013-02-12 02:57:00,46.6,44.4,30.31,SSW,203,0.0,1.0,92,0.00,,,0.00,meteohub,2013-02-12 10:57:00,
2013-02-12 03:02:00,46.6,44.4,30.31,SSW,204,0.0,3.0,92,0.00,,,0.00,meteohub,2013-02-12 11:02:00,
2013-02-12 03:07:00,46.6,44.4,30.31,SSW,204,0.0,3.0,92,0.00,,,0.00,meteohub,2013-02-12 11:07:00,
2013-02-12 03:12:00,46.4,44.2,30.31,SSW,204,1.0,3.0,92,0.00,,,0.00,meteohub,2013-02-12 11:12:00,
2013-02-12 03:17:00,46.6,44.4,30.31,SSW,204,0.0,3.0,92,0.00,,,0.00,meteohub,2013-02-12 11:17:00,
2013-02-12 03:22:00,46.6,44.4,30.31,SSW,204,2.0,3.0,92,0.00,,,0.00,meteohub,2013-02-12 11:22:00,
2013-02-12 03:27:00,46.6,44.4,30.31,SSW,204,0.0,3.0,92,0.00,,,0.00,meteohub,2013-02-12 11:27:00,
2013-02-12 03:32:00,46.8,44.6,30.31,SSW,204,0.0,3.0,92,0.00,,,0.00,meteohub,2013-02-12 11:32:00,
2013-02-12 03:37:00,46.6,44.4,30.31,SSW,204,0.0,3.0,92,0.00,,,0.00,meteohub,2013-02-12 11:37:00,
2013-02-12 03:42:00,46.6,44.4,30.31,SSW,204,0.0,3.0,92,0.00,,,0.00,meteohub,2013-02-12 11:42:00,
2013-02-12 03:47:00,46.6,44.4,30.31,SSW,204,0.0,1.0,92,0.00,,,0.00,meteohub,2013-02-12 11:47:00,
2013-02-12 03:52:00,46.4,44.2,30.31,SSW,204,0.0,0.0,92,0.00,,,0.00,meteohub,2013-02-12 11:52:00,
2013-02-12 03:57:00,46.2,44.1,30.32,SSW,204,0.0,0.0,92,0.00,,,0.00,meteohub,2013-02-12 11:57:00,
2013-02-12 04:02:00,46.0,43.9,30.32,SSW,204,0.0,0.0,92,0.00,,,0.00,meteohub,2013-02-12 12:02:00,
2013-02-12 04:07:00,46.0,43.9,30.32,SSW,203,0.0,0.0,92,0.00,,,0.00,meteohub,2013-02-12 12:07:00,
2013-02-12 04:12:00,46.0,44.1,30.32,SSW,204,0.0,0.0,93,0.00,,,0.00,meteohub,2013-02-12 12:12:00,
2013-02-12 04:18:00,45.9,43.7,30.32,SSW,204,0.0,0.0,92,0.00,,,0.00,meteohub,2013-02-12 12:18:00,
2013-02-12 04:23:00,45.3,42.8,30.32,SSW,204,0.0,0.0,91,0.00,,,0.00,meteohub,2013-02-12 12:23:00,
2013-02-12 04:28:00,45.0,42.8,30.32,SSW,204,0.0,0.0,92,0.00,,,0.00,meteohub,2013-02-12 12:28:00,
2013-02-12 04:33:00,45.0,42.8,30.32,SSW,204,0.0,0.0,92,0.00,,,0.00,meteohub,2013-02-12 12:33:00,
2013-02-12 04:38:00,44.6,42.4,30.32,SSW,204,0.0,0.0,92,0.00,,,0.00,meteohub,2013-02-12 12:38:00,
2013-02-12 04:43:00,44.4,42.3,30.32,SSW,204,0.0,0.0,92,0.00,,,0.00,meteohub,2013-02-12 12:43:00,
2013-02-12 04:48:00,44.2,42.1,30.32,SSW,204,0.0,0.0,92,0.00,,,0.00,meteohub,2013-02-12 12:48:00,
2013-02-12 04:53:00,44.1,42.1,30.32,SSW,203,0.0,0.0,93,0.00,,,0.00,meteohub,2013-02-12 12:53:00,
2013-02-12 04:58:00,43.9,41.7,30.32,SSW,204,0.0,0.0,92,0.00,,,0.00,meteohub,2013-02-12 12:58:00,
2013-02-12 05:03:00,43.9,41.7,30.32,SSW,204,0.0,0.0,92,0.00,,,0.00,meteohub,2013-02-12 13:03:00,
2013-02-12 05:08:00,43.5,41.7,30.32,SSW,204,0.0,0.0,93,0.00,,,0.00,meteohub,2013-02-12 13:08:00,
2013-02-12 05:13:00,43.3,41.2,30.32,SSW,204,0.0,1.0,92,0.00,,,0.00,meteohub,2013-02-12 13:13:00,
2013-02-12 05:18:00,43.2,41.4,30.32,SSW,204,0.0,1.0,93,0.00,,,0.00,meteohub,2013-02-12 13:18:00,
2013-02-12 05:23:00,43.0,41.2,30.33,SSW,204,0.0,1.0,93,0.00,,,0.00,meteohub,2013-02-12 13:23:00,
2013-02-12 05:28:00,42.8,41.0,30.33,SSW,204,0.0,1.0,93,0.00,,,0.00,meteohub,2013-02-12 13:28:00,
2013-02-12 05:33:00,42.6,40.8,30.33,SSW,204,0.0,0.0,93,0.00,,,0.00,meteohub,2013-02-12 13:33:00,
2013-02-12 05:38:00,42.6,40.8,30.33,SSW,204,0.0,0.0,93,0.00,,,0.00,meteohub,2013-02-12 13:38:00,
2013-02-12 05:43:00,42.6,40.8,30.34,SSW,204,0.0,0.0,93,0.00,,,0.00,meteohub,2013-02-12 13:43:00,
2013-02-12 05:48:00,42.6,40.8,30.34,SSW,204,0.0,3.0,93,0.00,,,0.00,meteohub,2013-02-12 13:48:00,
2013-02-12 05:53:00,42.6,40.8,30.34,SSW,204,0.0,3.0,93,0.00,,,0.00,meteohub,2013-02-12 13:53:00,
2013-02-12 05:58:00,42.8,41.0,30.35,SSW,204,0.0,3.0,93,0.00,,,0.00,meteohub,2013-02-12 13:58:00,
2013-02-12 06:03:00,43.0,41.2,30.35,SSW,204,0.0,1.0,93,0.00,,,0.00,meteohub,2013-02-12 14:03:00,
2013-02-12 06:08:00,43.0,41.2,30.35,SSW,204,0.0,1.0,93,0.00,,,0.00,meteohub,2013-02-12 14:08:00,
2013-02-12 06:13:00,43.2,41.4,30.35,SSW,204,0.0,1.0,93,0.00,,,0.00,meteohub,2013-02-12 14:13:00,
2013-02-12 06:19:00,43.2,41.0,30.35,SSW,204,0.0,1.0,92,0.00,,,0.00,meteohub,2013-02-12 14:19:00,
2013-02-12 06:24:00,43.2,41.0,30.35,SSW,204,0.0,1.0,92,0.00,,,0.00,meteohub,2013-02-12 14:24:00,
2013-02-12 06:29:00,43.3,41.2,30.35,SSW,204,0.0,1.0,92,0.00,,,0.00,meteohub,2013-02-12 14:29:00,
2013-02-12 06:34:00,43.3,41.2,30.35,SSW,204,0.0,1.0,92,0.00,,,0.00,meteohub,2013-02-12 14:34:00,
2013-02-12 06:39:00,43.3,41.2,30.36,SSW,204,0.0,1.0,92,0.00,,,0.00,meteohub,2013-02-12 14:39:00,
2013-02-12 06:44:00,43.3,40.8,30.36,SSW,204,0.0,1.0,91,0.00,,,0.00,meteohub,2013-02-12 14:44:00,
2013-02-12 06:49:00,43.3,40.8,30.36,SSW,204,0.0,1.0,91,0.00,,,0.00,meteohub,2013-02-12 14:49:00,
2013-02-12 06:54:00,43.5,41.0,30.37,SSW,204,0.0,0.0,91,0.00,,,0.00,meteohub,2013-02-12 14:54:00,
2013-02-12 06:59:00,43.5,41.4,30.37,SSW,204,0.0,2.0,92,0.00,,,0.00,meteohub,2013-02-12 14:59:00,
2013-02-12 07:04:00,43.9,41.7,30.37,SSW,204,0.0,2.0,92,0.00,,,0.00,meteohub,2013-02-12 15:04:00,
2013-02-12 07:09:00,43.9,41.4,30.37,SSW,204,1.0,2.0,91,0.00,,,0.00,meteohub,2013-02-12 15:09:00,
2013-02-12 07:14:00,44.1,41.5,30.37,SSW,204,0.0,2.0,91,0.00,,,0.00,meteohub,2013-02-12 15:14:00,
2013-02-12 07:19:00,44.1,41.5,30.37,SSW,205,0.0,2.0,91,0.00,,,0.00,meteohub,2013-02-12 15:19:00,
2013-02-12 07:24:00,44.1,41.5,30.38,SSW,204,0.0,2.0,91,0.00,,,0.00,meteohub,2013-02-12 15:24:00,
2013-02-12 07:29:00,44.2,41.7,30.38,SSW,204,0.0,2.0,91,0.00,,,0.00,meteohub,2013-02-12 15:29:00,
2013-02-12 07:34:00,44.2,42.1,30.38,SSW,204,2.0,2.0,92,0.00,,,0.00,meteohub,2013-02-12 15:34:00,
2013-02-12 07:39:00,44.4,42.3,30.39,SSW,204,2.0,2.0,92,0.00,,,0.00,meteohub,2013-02-12 15:39:00,
2013-02-12 07:44:00,44.4,42.3,30.39,SSW,204,2.0,2.0,92,0.00,,,0.00,meteohub,2013-02-12 15:44:00,
2013-02-12 07:49:00,44.4,42.3,30.39,SSW,204,0.0,2.0,92,0.00,,,0.00,meteohub,2013-02-12 15:49:00,
2013-02-12 07:54:00,44.4,42.3,30.39,SSW,203,2.0,3.0,92,0.00,,,0.00,meteohub,2013-02-12 15:54:00,
2013-02-12 07:59:00,44.4,42.3,30.39,SSW,204,3.0,4.0,92,0.00,,,0.00,meteohub,2013-02-12 15:59:00,
2013-02-12 08:04:00,44.4,42.3,30.40,SSW,209,3.0,4.0,92,0.00,,,0.00,meteohub,2013-02-12 16:04:00,
2013-02-12 08:09:00,44.4,42.3,30.40,WNW,301,4.0,4.0,92,0.00,,,0.00,meteohub,2013-02-12 16:09:00,
2013-02-12 08:15:00,44.4,42.3,30.40,NNW,331,3.0,5.0,92,0.00,,,0.00,meteohub,2013-02-12 16:15:00,
2013-02-12 08:20:00,44.2,42.3,30.40,NNE,12,3.0,6.0,93,0.00,,,0.00,meteohub,2013-02-12 16:20:00,
2013-02-12 08:25:00,44.2,42.3,30.40,North,4,2.0,6.0,93,0.00,,,0.00,meteohub,2013-02-12 16:25:00,
2013-02-12 08:30:00,44.1,42.1,30.40,North,354,4.0,6.0,93,0.00,,,0.00,meteohub,2013-02-12 16:30:00,
2013-02-12 08:35:00,43.9,42.3,30.40,NNE,12,4.0,6.0,94,0.00,,,0.00,meteohub,2013-02-12 16:35:00,
2013-02-12 08:40:00,44.1,42.4,30.40,NNE,18,3.0,6.0,94,0.00,,,0.00,meteohub,2013-02-12 16:40:00,
2013-02-12 08:45:00,43.9,42.3,30.40,NNW,341,5.0,7.0,94,0.00,,,0.00,meteohub,2013-02-12 16:45:00,
2013-02-12 08:50:00,44.1,42.4,30.41,North,349,2.0,7.0,94,0.00,,,0.00,meteohub,2013-02-12 16:50:00,
2013-02-12 08:55:00,44.2,42.6,30.41,North,359,7.0,7.0,94,0.00,,,0.00,meteohub,2013-02-12 16:55:00,
2013-02-12 09:00:00,44.1,42.4,30.41,NNE,12,5.0,8.0,94,0.00,,,0.00,meteohub,2013-02-12 17:00:00,
2013-02-12 09:05:00,44.2,42.6,30.41,NNW,332,3.0,8.0,94,0.00,,,0.00,meteohub,2013-02-12 17:05:00,
2013-02-12 09:10:00,44.6,43.0,30.41,NNW,333,3.0,8.0,94,0.00,,,0.00,meteohub,2013-02-12 17:10:00,
2013-02-12 09:15:00,45.1,43.5,30.42,NNW,346,6.0,8.0,94,0.00,,,0.00,meteohub,2013-02-12 17:15:00,
2013-02-12 09:20:00,45.7,43.7,30.42,NNW,334,8.0,9.0,93,0.00,,,0.00,meteohub,2013-02-12 17:20:00,
2013-02-12 09:25:00,46.0,43.9,30.42,NNW,334,5.0,10.0,92,0.00,,,0.00,meteohub,2013-02-12 17:25:00,
2013-02-12 09:30:00,46.6,44.1,30.42,NNE,13,4.0,10.0,91,0.00,,,0.00,meteohub,2013-02-12 17:30:00,
2013-02-12 09:35:00,46.9,43.9,30.42,North,359,4.0,9.0,89,0.00,,,0.00,meteohub,2013-02-12 17:35:00,
2013-02-12 09:40:00,47.7,43.7,30.42,NNE,33,8.0,9.0,86,0.00,,,0.00,meteohub,2013-02-12 17:40:00,
2013-02-12 09:45:00,48.0,43.3,30.42,North,359,8.0,9.0,84,0.00,,,0.00,meteohub,2013-02-12 17:45:00,
2013-02-12 09:50:00,48.6,42.3,30.41,NNE,18,6.0,8.0,79,0.00,,,0.00,meteohub,2013-02-12 17:50:00,
2013-02-12 09:55:00,48.9,41.7,30.41,North,11,8.0,10.0,76,0.00,,,0.00,meteohub,2013-02-12 17:55:00,
2013-02-12 10:00:00,49.5,41.5,30.41,NNE,17,4.0,11.0,74,0.00,,,0.00,meteohub,2013-02-12 18:00:00,
2013-02-12 10:05:00,50.0,41.7,30.41,North,4,5.0,11.0,73,0.00,,,0.00,meteohub,2013-02-12 18:05:00,
2013-02-12 10:10:00,50.4,41.0,30.42,NNE,28,6.0,11.0,70,0.00,,,0.00,meteohub,2013-02-12 18:10:00,
2013-02-12 10:15:00,50.9,41.2,30.41,North,350,6.0,11.0,69,0.00,,,0.00,meteohub,2013-02-12 18:15:00,
2013-02-12 10:20:00,51.3,41.0,30.41,ENE,59,3.0,10.0,68,0.00,,,0.00,meteohub,2013-02-12 18:20:00,
2013-02-12 10:25:00,52.0,41.4,30.41,North,8,6.0,10.0,67,0.00,,,0.00,meteohub,2013-02-12 18:25:00,
2013-02-12 10:31:00,52.3,41.4,30.41,North,359,8.0,11.0,66,0.00,,,0.00,meteohub,2013-02-12 18:31:00,
2013-02-12 10:36:00,52.5,40.6,30.41,ENE,58,7.0,11.0,64,0.00,,,0.00,meteohub,2013-02-12 18:36:00,
2013-02-12 10:41:00,52.7,40.5,30.41,ENE,68,4.0,11.0,63,0.00,,,0.00,meteohub,2013-02-12 18:41:00,
2013-02-12 10:46:00,52.7,40.1,30.41,ENE,59,7.0,10.0,62,0.00,,,0.00,meteohub,2013-02-12 18:46:00,
2013-02-12 10:51:00,52.9,39.4,30.41,North,350,7.0,10.0,60,0.00,,,0.00,meteohub,2013-02-12 18:51:00,
2013-02-12 10:56:00,53.2,39.2,30.41,NNE,14,3.0,10.0,59,0.00,,,0.00,meteohub,2013-02-12 18:56:00,
2013-02-12 11:01:00,53.2,38.8,30.41,NE,38,7.0,10.0,58,0.00,,,0.00,meteohub,2013-02-12 19:01:00,
2013-02-12 11:06:00,53.4,39.0,30.41,NNE,17,3.0,10.0,58,0.00,,,0.00,meteohub,2013-02-12 19:06:00,
2013-02-12 11:11:00,54.0,39.0,30.42,North,4,3.0,8.0,57,0.00,,,0.00,meteohub,2013-02-12 19:11:00,
2013-02-12 11:16:00,54.1,38.8,30.41,North,8,8.0,10.0,56,0.00,,,0.00,meteohub,2013-02-12 19:16:00,
2013-02-12 11:21:00,54.7,38.8,30.41,NNE,33,6.0,10.0,55,0.00,,,0.00,meteohub,2013-02-12 19:21:00,
2013-02-12 11:26:00,55.2,39.4,30.41,NNE,33,7.0,10.0,55,0.00,,,0.00,meteohub,2013-02-12 19:26:00,
2013-02-12 11:31:00,55.0,38.3,30.41,NE,45,5.0,9.0,53,0.00,,,0.00,meteohub,2013-02-12 19:31:00,
2013-02-12 11:36:00,55.0,38.3,30.41,WNW,303,6.0,10.0,53,0.00,,,0.00,meteohub,2013-02-12 19:36:00,
2013-02-12 11:41:00,55.2,37.4,30.41,NNE,16,3.0,11.0,51,0.00,,,0.00,meteohub,2013-02-12 19:41:00,
2013-02-12 11:46:00,55.8,37.9,30.41,NNW,332,7.0,11.0,51,0.00,,,0.00,meteohub,2013-02-12 19:46:00,
2013-02-12 11:51:00,56.1,37.2,30.41,NNW,340,6.0,11.0,49,0.00,,,0.00,meteohub,2013-02-12 19:51:00,
2013-02-12 11:56:00,56.1,40.6,30.40,WNW,299,4.0,10.0,56,0.00,,,0.00,meteohub,2013-02-12 19:56:00,
2013-02-12 12:01:00,56.1,39.2,30.40,ENE,68,4.0,10.0,53,0.00,,,0.00,meteohub,2013-02-12 20:01:00,
2013-02-12 12:06:00,56.5,37.0,30.40,NW,316,3.0,9.0,48,0.00,,,0.00,meteohub,2013-02-12 20:06:00,
2013-02-12 12:11:00,56.8,36.9,30.40,NE,37,2.0,9.0,47,0.00,,,0.00,meteohub,2013-02-12 20:11:00,
2013-02-12 12:16:00,57.6,37.9,30.40,North,4,3.0,10.0,48,0.00,,,0.00,meteohub,2013-02-12 20:16:00,
2013-02-12 12:21:00,57.9,36.7,30.39,NNE,23,2.0,10.0,45,0.00,,,0.00,meteohub,2013-02-12 20:21:00,
2013-02-12 12:27:00,57.9,36.7,30.39,NNE,27,2.0,10.0,45,0.00,,,0.00,meteohub,2013-02-12 20:27:00,
2013-02-12 12:32:00,58.3,36.5,30.39,North,354,4.0,9.0,44,0.00,,,0.00,meteohub,2013-02-12 20:32:00,
2013-02-12 12:37:00,58.5,36.7,30.39,NNW,348,5.0,9.0,44,0.00,,,0.00,meteohub,2013-02-12 20:37:00,
2013-02-12 12:42:00,58.5,36.7,30.39,NNE,21,9.0,11.0,44,0.00,,,0.00,meteohub,2013-02-12 20:42:00,
2013-02-12 12:47:00,58.5,37.2,30.38,NNE,21,10.0,11.0,45,0.00,,,0.00,meteohub,2013-02-12 20:47:00,
2013-02-12 12:52:00,58.5,37.8,30.38,North,359,8.0,11.0,46,0.00,,,0.00,meteohub,2013-02-12 20:52:00,
2013-02-12 12:57:00,58.5,37.2,30.38,NE,50,6.0,11.0,45,0.00,,,0.00,meteohub,2013-02-12 20:57:00,
2013-02-12 13:02:00,58.6,37.9,30.38,NNW,347,3.0,11.0,46,0.00,,,0.00,meteohub,2013-02-12 21:02:00,
2013-02-12 13:07:00,58.6,37.9,30.38,North,359,10.0,11.0,46,0.00,,,0.00,meteohub,2013-02-12 21:07:00,
2013-02-12 13:12:00,58.8,38.1,30.38,North,8,7.0,11.0,46,0.00,,,0.00,meteohub,2013-02-12 21:12:00,
2013-02-12 13:17:00,59.2,38.5,30.37,NW,314,5.0,10.0,46,0.00,,,0.00,meteohub,2013-02-12 21:17:00,
2013-02-12 13:22:00,59.4,38.7,30.37,NNW,333,8.0,10.0,46,0.00,,,0.00,meteohub,2013-02-12 21:22:00,
2013-02-12 13:27:00,59.7,38.8,30.38,NNE,29,2.0,10.0,46,0.00,,,0.00,meteohub,2013-02-12 21:27:00,
2013-02-12 13:32:00,60.4,37.2,30.38,NNE,14,7.0,10.0,42,0.00,,,0.00,meteohub,2013-02-12 21:32:00,
2013-02-12 13:37:00,60.3,37.8,30.37,NNW,346,2.0,10.0,43,0.00,,,0.00,meteohub,2013-02-12 21:37:00,
2013-02-12 13:42:00,60.6,37.9,30.37,NNW,333,4.0,10.0,43,0.00,,,0.00,meteohub,2013-02-12 21:42:00,
2013-02-12 13:47:00,60.6,38.7,30.37,ESE,118,12.0,12.0,44,0.00,,,0.00,meteohub,2013-02-12 21:47:00,
2013-02-12 13:52:00,60.4,40.1,30.37,ESE,105,2.0,22.0,47,0.00,,,0.00,meteohub,2013-02-12 21:52:00,
2013-02-12 13:57:00,60.6,39.7,30.37,East,100,1.0,22.0,46,0.00,,,0.00,meteohub,2013-02-12 21:57:00,
2013-02-12 14:02:00,60.6,39.7,30.36,ENE,61,0.0,22.0,46,0.00,,,0.00,meteohub,2013-02-12 22:02:00,
2013-02-12 14:07:00,60.8,40.5,30.36,ENE,62,0.0,7.0,47,0.00,,,0.00,meteohub,2013-02-12 22:07:00,
2013-02-12 14:13:00,61.5,39.9,30.36,SW,235,3.0,5.0,45,0.00,,,0.00,meteohub,2013-02-12 22:13:00,
2013-02-12 14:18:00,62.1,40.5,30.36,SW,215,7.0,7.0,45,0.00,,,0.00,meteohub,2013-02-12 22:18:00,
2013-02-12 14:23:00,61.2,41.4,30.36,East,79,9.0,14.0,48,0.00,,,0.00,meteohub,2013-02-12 22:23:00,
2013-02-12 14:28:00,60.8,41.5,30.36,NE,56,4.0,14.0,49,0.00,,,0.00,meteohub,2013-02-12 22:28:00,
2013-02-12 14:33:00,61.0,37.8,30.36,North,8,1.0,14.0,42,0.00,,,0.00,meteohub,2013-02-12 22:33:00,
2013-02-12 14:38:00,61.3,40.5,30.36,NNE,21,4.0,11.0,46,0.00,,,0.00,meteohub,2013-02-12 22:38:00,
2013-02-12 14:43:00,61.3,39.7,30.36,WNW,293,6.0,10.0,45,0.00,,,0.00,meteohub,2013-02-12 22:43:00,
2013-02-12 14:48:00,60.4,42.3,30.36,WNW,288,11.0,11.0,51,0.00,,,0.00,meteohub,2013-02-12 22:48:00,
2013-02-12 14:53:00,59.7,41.0,30.36,WNW,297,9.0,13.0,50,0.00,,,0.00,meteohub,2013-02-12 22:53:00,
2013-02-12 14:58:00,60.1,40.3,30.36,NW,305,6.0,14.0,48,0.00,,,0.00,meteohub,2013-02-12 22:58:00,
2013-02-12 15:03:00,60.6,40.3,30.35,NW,316,7.0,14.0,47,0.00,,,0.00,meteohub,2013-02-12 23:03:00,
2013-02-12 15:08:00,60.4,41.2,30.35,NW,307,6.0,14.0,49,0.00,,,0.00,meteohub,2013-02-12 23:08:00,
2013-02-12 15:13:00,59.9,42.3,30.35,WNW,283,11.0,12.0,52,0.00,,,0.00,meteohub,2013-02-12 23:13:00,
2013-02-12 15:18:00,59.4,41.7,30.35,West,280,10.0,13.0,52,0.00,,,0.00,meteohub,2013-02-12 23:18:00,
2013-02-12 15:23:00,59.9,41.7,30.35,WNW,299,8.0,15.0,51,0.00,,,0.00,meteohub,2013-02-12 23:23:00,
2013-02-12 15:28:00,60.3,41.5,30.35,West,276,10.0,15.0,50,0.00,,,0.00,meteohub,2013-02-12 23:28:00,
2013-02-12 15:33:00,60.6,39.7,30.35,North,350,7.0,15.0,46,0.00,,,0.00,meteohub,2013-02-12 23:33:00,
2013-02-12 15:38:00,61.3,42.1,30.35,West,278,7.0,12.0,49,0.00,,,0.00,meteohub,2013-02-12 23:38:00,
2013-02-12 15:43:00,61.0,40.6,30.35,ESE,117,1.0,11.0,47,0.00,,,0.00,meteohub,2013-02-12 23:43:00,
2013-02-12 15:49:00,60.6,41.4,30.35,South,178,8.0,13.0,49,0.00,,,0.00,meteohub,2013-02-12 23:49:00,
2013-02-12 15:54:00,59.9,41.7,30.35,SW,216,9.0,13.0,51,0.00,,,0.00,meteohub,2013-02-12 23:54:00,
2013-02-12 15:59:00,59.5,41.4,30.35,SSE,162,3.0,10.0,51,0.00,,,0.00,meteohub,2013-02-12 23:59:00,
2013-02-12 16:04:00,59.2,44.8,30.35,ESE,106,4.0,9.0,59,0.00,,,0.00,meteohub,2013-02-13 00:04:00,
2013-02-12 16:09:00,58.3,45.7,30.35,ESE,104,5.0,9.0,63,0.00,,,0.00,meteohub,2013-02-13 00:09:00,
2013-02-12 16:14:00,57.4,46.0,30.35,ESE,107,7.0,8.0,66,0.00,,,0.00,meteohub,2013-02-13 00:14:00,
2013-02-12 16:19:00,56.8,46.4,30.35,ESE,114,7.0,10.0,68,0.00,,,0.00,meteohub,2013-02-13 00:19:00,
2013-02-12 16:24:00,56.1,46.0,30.35,SE,125,6.0,10.0,69,0.00,,,0.00,meteohub,2013-02-13 00:24:00,
2013-02-12 16:29:00,55.8,46.0,30.35,SE,133,6.0,10.0,70,0.00,,,0.00,meteohub,2013-02-13 00:29:00,
2013-02-12 16:34:00,55.8,46.6,30.35,ESE,111,5.0,10.0,71,0.00,,,0.00,meteohub,2013-02-13 00:34:00,
2013-02-12 16:39:00,55.6,46.8,30.35,SE,129,4.0,9.0,72,0.00,,,0.00,meteohub,2013-02-13 00:39:00,
2013-02-12 16:44:00,55.2,46.8,30.35,ESE,118,5.0,9.0,73,0.00,,,0.00,meteohub,2013-02-13 00:44:00,
2013-02-12 16:49:00,54.9,46.4,30.35,ESE,120,3.0,9.0,73,0.00,,,0.00,meteohub,2013-02-13 00:49:00,
2013-02-12 16:54:00,54.5,46.4,30.35,SE,129,3.0,8.0,74,0.00,,,0.00,meteohub,2013-02-13 00:54:00,
2013-02-12 16:59:00,54.1,46.4,30.35,SE,132,4.0,8.0,75,0.00,,,0.00,meteohub,2013-02-13 00:59:00,
2013-02-12 17:04:00,54.1,46.4,30.35,SE,133,3.0,8.0,75,0.00,,,0.00,meteohub,2013-02-13 01:04:00,
2013-02-12 17:09:00,54.0,46.6,30.35,SE,131,5.0,8.0,76,0.00,,,0.00,meteohub,2013-02-13 01:09:00,
2013-02-12 17:14:00,53.8,46.8,30.35,SE,136,1.0,7.0,77,0.00,,,0.00,meteohub,2013-02-13 01:14:00,
2013-02-12 17:19:00,53.4,46.0,30.35,SE,127,4.0,7.0,76,0.00,,,0.00,meteohub,2013-02-13 01:19:00,
2013-02-12 17:24:00,53.4,45.3,30.36,SE,135,7.0,8.0,74,0.00,,,0.00,meteohub,2013-02-13 01:24:00,
2013-02-12 17:29:00,53.6,45.5,30.35,SE,131,4.0,8.0,74,0.00,,,0.00,meteohub,2013-02-13 01:29:00,
2013-02-12 17:34:00,53.4,46.0,30.36,ESE,123,2.0,8.0,76,0.00,,,0.00,meteohub,2013-02-13 01:34:00,
2013-02-12 17:39:00,53.1,46.0,30.36,SE,127,2.0,8.0,77,0.00,,,0.00,meteohub,2013-02-13 01:39:00,
2013-02-12 17:44:00,52.9,46.2,30.36,SE,127,4.0,8.0,78,0.00,,,0.00,meteohub,2013-02-13 01:44:00,
2013-02-12 17:49:00,52.5,46.2,30.36,SE,131,3.0,7.0,79,0.00,,,0.00,meteohub,2013-02-13 01:49:00,
2013-02-12 17:54:00,52.3,46.4,30.36,SE,133,3.0,7.0,80,0.00,,,0.00,meteohub,2013-02-13 01:54:00,
2013-02-12 17:59:00,52.2,46.6,30.36,SE,131,2.0,7.0,81,0.00,,,0.00,meteohub,2013-02-13 01:59:00,
2013-02-12 18:04:00,52.0,46.6,30.36,SE,125,4.0,7.0,82,0.00,,,0.00,meteohub,2013-02-13 02:04:00,
2013-02-12 18:09:00,51.8,46.8,30.36,SE,127,5.0,7.0,83,0.00,,,0.00,meteohub,2013-02-13 02:09:00,
2013-02-12 18:14:00,51.6,46.9,30.36,SE,133,1.0,6.0,84,0.00,,,0.00,meteohub,2013-02-13 02:14:00,
2013-02-12 18:20:00,51.4,46.8,30.36,SE,124,3.0,7.0,84,0.00,,,0.00,meteohub,2013-02-13 02:20:00,
2013-02-12 18:25:00,51.4,46.8,30.36,SE,134,3.0,7.0,84,0.00,,,0.00,meteohub,2013-02-13 02:25:00,
2013-02-12 18:30:00,51.4,46.8,30.36,SE,134,2.0,6.0,84,0.00,,,0.00,meteohub,2013-02-13 02:30:00,
2013-02-12 18:35:00,51.3,46.9,30.36,SE,135,3.0,6.0,85,0.00,,,0.00,meteohub,2013-02-13 02:35:00,
2013-02-12 18:40:00,51.3,46.9,30.36,SE,135,2.0,6.0,85,0.00,,,0.00,meteohub,2013-02-13 02:40:00,
2013-02-12 18:45:00,51.1,46.8,30.36,SE,135,1.0,5.0,85,0.00,,,0.00,meteohub,2013-02-13 02:45:00,
2013-02-12 18:50:00,50.9,46.6,30.36,SE,135,2.0,5.0,85,0.00,,,0.00,meteohub,2013-02-13 02:50:00,
2013-02-12 18:55:00,50.9,46.6,30.36,SE,135,0.0,5.0,85,0.00,,,0.00,meteohub,2013-02-13 02:55:00,
2013-02-12 19:00:00,50.9,46.6,30.37,SE,135,0.0,4.0,85,0.00,,,0.00,meteohub,2013-02-13 03:00:00,
2013-02-12 19:05:00,50.7,46.4,30.36,SE,135,0.0,2.0,85,0.00,,,0.00,meteohub,2013-02-13 03:05:00,
2013-02-12 19:10:00,50.7,46.4,30.36,SE,135,0.0,2.0,85,0.00,,,0.00,meteohub,2013-02-13 03:10:00,
2013-02-12 19:15:00,50.7,46.4,30.37,SE,135,1.0,2.0,85,0.00,,,0.00,meteohub,2013-02-13 03:15:00,
2013-02-12 19:20:00,50.7,46.4,30.37,SE,133,3.0,3.0,85,0.00,,,0.00,meteohub,2013-02-13 03:20:00,
2013-02-12 19:25:00,50.7,46.4,30.37,East,81,1.0,5.0,85,0.00,,,0.00,meteohub,2013-02-13 03:25:00,
2013-02-12 19:30:00,50.5,46.2,30.37,East,81,0.0,5.0,85,0.00,,,0.00,meteohub,2013-02-13 03:30:00,
2013-02-12 19:35:00,50.5,46.2,30.37,East,81,2.0,5.0,85,0.00,,,0.00,meteohub,2013-02-13 03:35:00,
2013-02-12 19:40:00,50.4,45.7,30.37,East,81,2.0,3.0,84,0.00,,,0.00,meteohub,2013-02-13 03:40:00,
2013-02-12 19:45:00,50.2,45.0,30.37,East,81,1.0,3.0,82,0.00,,,0.00,meteohub,2013-02-13 03:45:00,
2013-02-12 19:50:00,50.0,44.8,30.37,East,81,2.0,3.0,82,0.00,,,0.00,meteohub,2013-02-13 03:50:00,
2013-02-12 19:55:00,49.8,44.2,30.37,East,81,0.0,3.0,81,0.00,,,0.00,meteohub,2013-02-13 03:55:00,
2013-02-12 20:00:00,49.6,44.1,30.37,East,81,1.0,2.0,81,0.00,,,0.00,meteohub,2013-02-13 04:00:00,
2013-02-12 20:05:00,49.6,43.7,30.36,East,81,0.0,2.0,80,0.00,,,0.00,meteohub,2013-02-13 04:05:00,
2013-02-12 20:10:00,49.6,43.3,30.36,East,81,1.0,2.0,79,0.00,,,0.00,meteohub,2013-02-13 04:10:00,
2013-02-12 20:15:00,49.6,43.3,30.37,East,81,1.0,2.0,79,0.00,,,0.00,meteohub,2013-02-13 04:15:00,
2013-02-12 20:20:00,49.6,43.3,30.37,East,80,1.0,2.0,79,0.00,,,0.00,meteohub,2013-02-13 04:20:00,
2013-02-12 20:25:00,49.6,43.3,30.37,East,81,1.0,2.0,79,0.00,,,0.00,meteohub,2013-02-13 04:25:00,
2013-02-12 20:31:00,49.6,43.3,30.37,East,81,1.0,2.0,79,0.00,,,0.00,meteohub,2013-02-13 04:31:00,
2013-02-12 20:36:00,49.5,43.2,30.37,East,81,0.0,2.0,79,0.00,,,0.00,meteohub,2013-02-13 04:36:00,
2013-02-12 20:41:00,49.5,43.5,30.37,East,81,0.0,2.0,80,0.00,,,0.00,meteohub,2013-02-13 04:41:00,
2013-02-12 20:46:00,49.3,43.3,30.37,East,81,0.0,2.0,80,0.00,,,0.00,meteohub,2013-02-13 04:46:00,
2013-02-12 20:51:00,48.9,43.0,30.38,East,81,0.0,1.0,80,0.00,,,0.00,meteohub,2013-02-13 04:51:00,
2013-02-12 20:56:00,48.9,43.3,30.38,East,81,0.0,1.0,81,0.00,,,0.00,meteohub,2013-02-13 04:56:00,
2013-02-12 21:00:00,48.9,43.3,30.38,East,81,0.0,1.0,81,0.00,,,0.00,meteohub,2013-02-13 05:00:00,
2013-02-12 21:01:00,48.9,43.3,30.38,East,81,0.0,0.0,81,0.00,,,0.00,meteohub,2013-02-13 05:01:00,
2013-02-12 21:02:00,48.9,43.3,30.38,East,81,0.0,0.0,81,0.00,,,0.00,meteohub,2013-02-13 05:02:00,
2013-02-12 21:07:00,48.9,43.7,30.38,East,81,0.0,1.0,82,0.00,,,0.00,meteohub,2013-02-13 05:07:00,
2013-02-12 21:12:00,48.9,43.7,30.38,East,81,1.0,2.0,82,0.00,,,0.00,meteohub,2013-02-13 05:12:00,
2013-02-12 21:17:00,48.7,43.2,30.38,East,81,1.0,2.0,81,0.00,,,0.00,meteohub,2013-02-13 05:17:00,
2013-02-12 21:22:00,48.7,43.5,30.38,East,81,2.0,2.0,82,0.00,,,0.00,meteohub,2013-02-13 05:22:00,
2013-02-12 21:27:00,48.6,43.3,30.38,East,80,0.0,2.0,82,0.00,,,0.00,meteohub,2013-02-13 05:27:00,
2013-02-12 21:32:00,48.6,43.0,30.38,ENE,57,2.0,2.0,81,0.00,,,0.00,meteohub,2013-02-13 05:32:00,
2013-02-12 21:37:00,48.2,42.6,30.38,NE,53,3.0,3.0,81,0.00,,,0.00,meteohub,2013-02-13 05:37:00,
2013-02-12 21:42:00,47.8,42.6,30.38,NE,52,1.0,3.0,82,0.00,,,0.00,meteohub,2013-02-13 05:42:00,
2013-02-12 21:47:00,47.7,42.4,30.38,NE,52,0.0,3.0,82,0.00,,,0.00,meteohub,2013-02-13 05:47:00,
2013-02-12 21:52:00,47.3,42.1,30.38,NE,53,0.0,3.0,82,0.00,,,0.00,meteohub,2013-02-13 05:52:00,
2013-02-12 21:57:00,47.3,42.4,30.38,NE,53,0.0,3.0,83,0.00,,,0.00,meteohub,2013-02-13 05:57:00,
2013-02-12 22:02:00,47.3,42.4,30.38,NE,53,1.0,2.0,83,0.00,,,0.00,meteohub,2013-02-13 06:02:00,
2013-02-12 22:07:00,47.5,42.6,30.38,NE,53,1.0,2.0,83,0.00,,,0.00,meteohub,2013-02-13 06:07:00,
2013-02-12 22:12:00,47.5,42.6,30.38,NE,53,0.0,2.0,83,0.00,,,0.00,meteohub,2013-02-13 06:12:00,
2013-02-12 22:17:00,47.5,42.8,30.38,NE,53,0.0,2.0,84,0.00,,,0.00,meteohub,2013-02-13 06:17:00,
2013-02-12 22:22:00,47.5,42.6,30.38,NE,54,0.0,2.0,83,0.00,,,0.00,meteohub,2013-02-13 06:22:00,
2013-02-12 22:27:00,47.1,42.6,30.38,NE,53,0.0,1.0,84,0.00,,,0.00,meteohub,2013-02-13 06:27:00,
2013-02-12 22:33:00,46.9,42.4,30.38,NE,53,0.0,1.0,84,0.00,,,0.00,meteohub,2013-02-13 06:33:00,
2013-02-12 22:38:00,46.9,42.4,30.38,NE,53,0.0,0.0,84,0.00,,,0.00,meteohub,2013-02-13 06:38:00,
2013-02-12 22:43:00,46.8,42.3,30.38,NE,53,0.0,0.0,84,0.00,,,0.00,meteohub,2013-02-13 06:43:00,
2013-02-12 22:48:00,46.8,42.3,30.38,NE,54,0.0,0.0,84,0.00,,,0.00,meteohub,2013-02-13 06:48:00,
2013-02-12 22:53:00,46.6,42.1,30.38,NE,52,0.0,0.0,84,0.00,,,0.00,meteohub,2013-02-13 06:53:00,
2013-02-12 22:58:00,46.4,41.9,30.38,NE,53,0.0,0.0,84,0.00,,,0.00,meteohub,2013-02-13 06:58:00,
2013-02-12 23:03:00,46.2,41.7,30.38,NE,53,1.0,1.0,84,0.00,,,0.00,meteohub,2013-02-13 07:03:00,
2013-02-12 23:08:00,46.2,41.7,30.38,NE,53,0.0,1.0,84,0.00,,,0.00,meteohub,2013-02-13 07:08:00,
2013-02-12 23:13:00,46.2,41.9,30.38,NE,53,0.0,1.0,85,0.00,,,0.00,meteohub,2013-02-13 07:13:00,
2013-02-12 23:18:00,46.2,41.9,30.38,NE,53,0.0,1.0,85,0.00,,,0.00,meteohub,2013-02-13 07:18:00,
2013-02-12 23:23:00,46.0,41.7,30.38,NE,53,0.0,0.0,85,0.00,,,0.00,meteohub,2013-02-13 07:23:00,
2013-02-12 23:28:00,46.0,41.7,30.38,NE,53,0.0,1.0,85,0.00,,,0.00,meteohub,2013-02-13 07:28:00,
2013-02-12 23:33:00,45.9,41.5,30.38,NE,53,0.0,1.0,85,0.00,,,0.00,meteohub,2013-02-13 07:33:00,
2013-02-12 23:38:00,45.7,41.4,30.38,NE,53,0.0,1.0,85,0.00,,,0.00,meteohub,2013-02-13 07:38:00,
2013-02-12 23:43:00,45.5,41.2,30.38,NE,53,0.0,0.0,85,0.00,,,0.00,meteohub,2013-02-13 07:43:00,
2013-02-12 23:48:00,45.3,41.0,30.38,NE,53,0.0,0.0,85,0.00,,,0.00,meteohub,2013-02-13 07:48:00,
2013-02-12 23:54:00,45.1,40.8,30.38,NE,53,0.0,0.0,85,0.00,,,0.00,meteohub,2013-02-13 07:54:00,
2013-02-12 23:59:00,45.1,40.8,30.38,NE,53,0.0,0.0,85,0.00,,,0.00,meteohub,2013-02-13 07:59:00,